sensor_id;sensor_type;location;lat;lon;timestamp;P1;durP1;ratioP1;P2;durP2;ratioP2
61617;SDS011;47518;51.776;9.370;2023-03-05T00:01:22;7.55;;;3.65;;
61617;SDS011;47518;51.776;9.370;2023-03-05T00:04:07;6.15;;;3.20;;
61617;SDS011;47518;51.776;9.370;2023-03-05T00:06:56;6.95;;;3.22;;
61617;SDS011;47518;51.776;9.370;2023-03-05T00:09:27;6.18;;;3.00;;
61617;SDS011;47518;51.776;9.370;2023-03-05T00:11:58;11.90;;;3.60;;
61617;SDS011;47518;51.776;9.370;2023-03-05T00:14:27;8.45;;;3.35;;
61617;SDS011;47518;51.776;9.370;2023-03-05T00:16:52;8.90;;;3.80;;
61617;SDS011;47518;51.776;9.370;2023-03-05T00:19:18;10.23;;;2.92;;
61617;SDS011;47518;51.776;9.370;2023-03-05T00:21:46;7.57;;;3.08;;
61617;SDS011;47518;51.776;9.370;2023-03-05T00:24:16;8.82;;;3.20;;
61617;SDS011;47518;51.776;9.370;2023-03-05T00:26:50;7.20;;;3.20;;
61617;SDS011;47518;51.776;9.370;2023-03-05T00:29:21;7.55;;;3.25;;
61617;SDS011;47518;51.776;9.370;2023-03-05T00:31:49;8.45;;;3.17;;
61617;SDS011;47518;51.776;9.370;2023-03-05T00:34:16;10.27;;;3.30;;
61617;SDS011;47518;51.776;9.370;2023-03-05T00:36:44;9.48;;;3.47;;
61617;SDS011;47518;51.776;9.370;2023-03-05T00:39:14;8.63;;;2.90;;
61617;SDS011;47518;51.776;9.370;2023-03-05T00:41:42;7.43;;;3.22;;
61617;SDS011;47518;51.776;9.370;2023-03-05T00:44:10;9.93;;;3.10;;
61617;SDS011;47518;51.776;9.370;2023-03-05T00:46:36;6.40;;;2.90;;
61617;SDS011;47518;51.776;9.370;2023-03-05T00:49:02;6.78;;;3.17;;
61617;SDS011;47518;51.776;9.370;2023-03-05T00:51:28;7.38;;;3.35;;
61617;SDS011;47518;51.776;9.370;2023-03-05T00:53:53;9.10;;;2.95;;
61617;SDS011;47518;51.776;9.370;2023-03-05T00:56:19;8.65;;;3.10;;
61617;SDS011;47518;51.776;9.370;2023-03-05T00:58:45;6.65;;;2.85;;
61617;SDS011;47518;51.776;9.370;2023-03-05T01:01:10;7.53;;;3.53;;
61617;SDS011;47518;51.776;9.370;2023-03-05T01:03:38;10.23;;;3.13;;
61617;SDS011;47518;51.776;9.370;2023-03-05T01:06:05;10.50;;;3.30;;
61617;SDS011;47518;51.776;9.370;2023-03-05T01:08:36;9.68;;;3.10;;
61617;SDS011;47518;51.776;9.370;2023-03-05T01:11:05;6.30;;;2.75;;
61617;SDS011;47518;51.776;9.370;2023-03-05T01:13:32;10.00;;;2.88;;
61617;SDS011;47518;51.776;9.370;2023-03-05T01:15:57;9.90;;;3.08;;
61617;SDS011;47518;51.776;9.370;2023-03-05T01:18:23;8.88;;;3.28;;
61617;SDS011;47518;51.776;9.370;2023-03-05T01:20:52;8.55;;;3.00;;
61617;SDS011;47518;51.776;9.370;2023-03-05T01:23:21;8.82;;;3.22;;
61617;SDS011;47518;51.776;9.370;2023-03-05T01:25:53;8.00;;;2.85;;
61617;SDS011;47518;51.776;9.370;2023-03-05T01:28:30;9.95;;;3.38;;
61617;SDS011;47518;51.776;9.370;2023-03-05T01:30:58;7.32;;;3.22;;
61617;SDS011;47518;51.776;9.370;2023-03-05T01:33:24;8.93;;;3.10;;
61617;SDS011;47518;51.776;9.370;2023-03-05T01:35:52;8.95;;;3.05;;
61617;SDS011;47518;51.776;9.370;2023-03-05T01:38:22;8.60;;;3.47;;
61617;SDS011;47518;51.776;9.370;2023-03-05T01:40:48;12.15;;;3.42;;
61617;SDS011;47518;51.776;9.370;2023-03-05T01:43:25;9.27;;;3.45;;
61617;SDS011;47518;51.776;9.370;2023-03-05T02:01:56;11.05;;;5.70;;
61617;SDS011;47518;51.776;9.370;2023-03-05T02:04:25;7.57;;;4.47;;
61617;SDS011;47518;51.776;9.370;2023-03-05T02:09:23;7.65;;;5.00;;
61617;SDS011;47518;51.776;9.370;2023-03-05T02:11:52;10.50;;;4.75;;
61617;SDS011;47518;51.776;9.370;2023-03-05T02:14:22;6.68;;;4.35;;
61617;SDS011;47518;51.776;9.370;2023-03-05T02:16:51;10.23;;;4.65;;
61617;SDS011;47518;51.776;9.370;2023-03-05T02:19:16;7.63;;;4.03;;
61617;SDS011;47518;51.776;9.370;2023-03-05T02:21:46;9.25;;;4.10;;
61617;SDS011;47518;51.776;9.370;2023-03-05T02:24:30;6.20;;;3.78;;
61617;SDS011;47518;51.776;9.370;2023-03-05T02:26:59;7.03;;;3.97;;
61617;SDS011;47518;51.776;9.370;2023-03-05T02:29:25;10.35;;;4.20;;
61617;SDS011;47518;51.776;9.370;2023-03-05T02:31:56;10.00;;;4.20;;
61617;SDS011;47518;51.776;9.370;2023-03-05T02:34:24;7.15;;;4.05;;
61617;SDS011;47518;51.776;9.370;2023-03-05T02:36:49;8.85;;;4.20;;
61617;SDS011;47518;51.776;9.370;2023-03-05T02:39:19;8.32;;;4.32;;
61617;SDS011;47518;51.776;9.370;2023-03-05T02:41:45;11.25;;;4.80;;
61617;SDS011;47518;51.776;9.370;2023-03-05T02:44:10;7.93;;;4.28;;
61617;SDS011;47518;51.776;9.370;2023-03-05T02:46:35;8.60;;;4.93;;
61617;SDS011;47518;51.776;9.370;2023-03-05T02:49:01;9.20;;;4.50;;
61617;SDS011;47518;51.776;9.370;2023-03-05T02:51:26;10.90;;;4.25;;
61617;SDS011;47518;51.776;9.370;2023-03-05T02:53:52;12.13;;;4.28;;
61617;SDS011;47518;51.776;9.370;2023-03-05T02:56:17;7.68;;;4.35;;
61617;SDS011;47518;51.776;9.370;2023-03-05T02:58:43;6.50;;;4.30;;
61617;SDS011;47518;51.776;9.370;2023-03-05T03:01:11;9.95;;;4.40;;
61617;SDS011;47518;51.776;9.370;2023-03-05T03:03:36;9.38;;;4.32;;
61617;SDS011;47518;51.776;9.370;2023-03-05T03:06:02;8.23;;;4.25;;
61617;SDS011;47518;51.776;9.370;2023-03-05T03:08:27;10.68;;;4.53;;
61617;SDS011;47518;51.776;9.370;2023-03-05T03:10:53;7.50;;;4.38;;
61617;SDS011;47518;51.776;9.370;2023-03-05T03:13:20;6.60;;;4.38;;
61617;SDS011;47518;51.776;9.370;2023-03-05T03:15:47;11.15;;;4.75;;
61617;SDS011;47518;51.776;9.370;2023-03-05T03:18:12;9.85;;;4.28;;
61617;SDS011;47518;51.776;9.370;2023-03-05T03:20:38;10.32;;;4.85;;
61617;SDS011;47518;51.776;9.370;2023-03-05T03:23:09;9.18;;;4.50;;
61617;SDS011;47518;51.776;9.370;2023-03-05T03:25:34;6.78;;;4.10;;
61617;SDS011;47518;51.776;9.370;2023-03-05T03:28:00;7.28;;;4.45;;
61617;SDS011;47518;51.776;9.370;2023-03-05T03:30:25;9.50;;;4.35;;
61617;SDS011;47518;51.776;9.370;2023-03-05T03:32:51;7.50;;;4.32;;
61617;SDS011;47518;51.776;9.370;2023-03-05T03:35:16;10.18;;;4.75;;
61617;SDS011;47518;51.776;9.370;2023-03-05T03:37:42;12.10;;;5.35;;
61617;SDS011;47518;51.776;9.370;2023-03-05T03:40:08;7.78;;;4.05;;
61617;SDS011;47518;51.776;9.370;2023-03-05T03:42:35;8.82;;;4.10;;
61617;SDS011;47518;51.776;9.370;2023-03-05T03:45:00;7.75;;;4.22;;
61617;SDS011;47518;51.776;9.370;2023-03-05T03:47:27;10.02;;;4.55;;
61617;SDS011;47518;51.776;9.370;2023-03-05T03:49:53;8.48;;;4.20;;
61617;SDS011;47518;51.776;9.370;2023-03-05T03:52:19;11.60;;;3.80;;
61617;SDS011;47518;51.776;9.370;2023-03-05T03:54:46;7.43;;;4.05;;
61617;SDS011;47518;51.776;9.370;2023-03-05T03:57:12;5.47;;;4.05;;
61617;SDS011;47518;51.776;9.370;2023-03-05T03:59:38;6.03;;;3.47;;
61617;SDS011;47518;51.776;9.370;2023-03-05T04:02:03;7.13;;;3.80;;
61617;SDS011;47518;51.776;9.370;2023-03-05T04:04:28;10.20;;;3.90;;
61617;SDS011;47518;51.776;9.370;2023-03-05T04:06:54;12.15;;;4.20;;
61617;SDS011;47518;51.776;9.370;2023-03-05T04:09:23;8.63;;;4.03;;
61617;SDS011;47518;51.776;9.370;2023-03-05T04:11:48;8.68;;;4.20;;
61617;SDS011;47518;51.776;9.370;2023-03-05T04:14:14;6.18;;;3.92;;
61617;SDS011;47518;51.776;9.370;2023-03-05T04:16:39;10.30;;;3.97;;
61617;SDS011;47518;51.776;9.370;2023-03-05T04:19:05;13.73;;;4.57;;
61617;SDS011;47518;51.776;9.370;2023-03-05T04:21:31;7.45;;;4.15;;
61617;SDS011;47518;51.776;9.370;2023-03-05T04:23:56;7.88;;;4.28;;
61617;SDS011;47518;51.776;9.370;2023-03-05T04:26:22;10.45;;;4.03;;
61617;SDS011;47518;51.776;9.370;2023-03-05T04:28:47;6.80;;;3.83;;
61617;SDS011;47518;51.776;9.370;2023-03-05T04:31:15;9.52;;;4.07;;
61617;SDS011;47518;51.776;9.370;2023-03-05T04:33:41;8.10;;;4.13;;
61617;SDS011;47518;51.776;9.370;2023-03-05T04:36:09;6.68;;;3.63;;
61617;SDS011;47518;51.776;9.370;2023-03-05T04:38:34;5.07;;;3.80;;
61617;SDS011;47518;51.776;9.370;2023-03-05T04:41:00;9.15;;;4.25;;
61617;SDS011;47518;51.776;9.370;2023-03-05T04:43:25;9.20;;;4.00;;
61617;SDS011;47518;51.776;9.370;2023-03-05T04:45:50;8.05;;;4.15;;
61617;SDS011;47518;51.776;9.370;2023-03-05T04:48:16;8.68;;;3.70;;
61617;SDS011;47518;51.776;9.370;2023-03-05T04:50:42;9.75;;;4.03;;
61617;SDS011;47518;51.776;9.370;2023-03-05T04:53:08;8.18;;;3.80;;
61617;SDS011;47518;51.776;9.370;2023-03-05T04:55:36;8.25;;;4.00;;
61617;SDS011;47518;51.776;9.370;2023-03-05T04:58:02;9.07;;;3.58;;
61617;SDS011;47518;51.776;9.370;2023-03-05T05:00:27;8.57;;;3.70;;
61617;SDS011;47518;51.776;9.370;2023-03-05T05:02:52;7.18;;;3.78;;
61617;SDS011;47518;51.776;9.370;2023-03-05T05:05:19;8.35;;;3.85;;
61617;SDS011;47518;51.776;9.370;2023-03-05T05:07:47;6.38;;;3.63;;
61617;SDS011;47518;51.776;9.370;2023-03-05T05:10:20;5.43;;;3.72;;
61617;SDS011;47518;51.776;9.370;2023-03-05T05:12:46;6.78;;;3.70;;
61617;SDS011;47518;51.776;9.370;2023-03-05T05:15:11;5.40;;;3.55;;
61617;SDS011;47518;51.776;9.370;2023-03-05T05:17:40;8.32;;;3.90;;
61617;SDS011;47518;51.776;9.370;2023-03-05T05:20:06;9.82;;;3.65;;
61617;SDS011;47518;51.776;9.370;2023-03-05T05:22:33;7.13;;;3.75;;
61617;SDS011;47518;51.776;9.370;2023-03-05T05:24:58;9.43;;;4.07;;
61617;SDS011;47518;51.776;9.370;2023-03-05T05:27:24;8.40;;;3.72;;
61617;SDS011;47518;51.776;9.370;2023-03-05T05:29:50;5.78;;;3.60;;
61617;SDS011;47518;51.776;9.370;2023-03-05T05:32:16;10.20;;;3.63;;
61617;SDS011;47518;51.776;9.370;2023-03-05T05:34:44;8.60;;;3.65;;
61617;SDS011;47518;51.776;9.370;2023-03-05T05:37:09;10.32;;;3.78;;
61617;SDS011;47518;51.776;9.370;2023-03-05T05:39:35;10.35;;;3.90;;
61617;SDS011;47518;51.776;9.370;2023-03-05T05:42:00;7.95;;;3.58;;
61617;SDS011;47518;51.776;9.370;2023-03-05T05:44:25;7.03;;;3.70;;
61617;SDS011;47518;51.776;9.370;2023-03-05T05:46:51;5.10;;;3.35;;
61617;SDS011;47518;51.776;9.370;2023-03-05T05:49:16;7.15;;;3.20;;
61617;SDS011;47518;51.776;9.370;2023-03-05T05:51:42;5.93;;;3.45;;
61617;SDS011;47518;51.776;9.370;2023-03-05T05:54:09;8.02;;;3.30;;
61617;SDS011;47518;51.776;9.370;2023-03-05T05:56:36;5.70;;;3.42;;
61617;SDS011;47518;51.776;9.370;2023-03-05T05:59:02;5.47;;;3.33;;
61617;SDS011;47518;51.776;9.370;2023-03-05T06:01:28;7.63;;;3.53;;
61617;SDS011;47518;51.776;9.370;2023-03-05T06:03:55;4.57;;;3.70;;
61617;SDS011;47518;51.776;9.370;2023-03-05T06:06:23;5.57;;;3.33;;
61617;SDS011;47518;51.776;9.370;2023-03-05T06:08:54;7.97;;;3.47;;
61617;SDS011;47518;51.776;9.370;2023-03-05T06:37:57;9.50;;;4.00;;
61617;SDS011;47518;51.776;9.370;2023-03-05T06:40:22;8.95;;;3.65;;
61617;SDS011;47518;51.776;9.370;2023-03-05T06:42:47;6.63;;;3.55;;
61617;SDS011;47518;51.776;9.370;2023-03-05T06:45:13;6.72;;;3.55;;
61617;SDS011;47518;51.776;9.370;2023-03-05T06:47:38;6.68;;;3.50;;
61617;SDS011;47518;51.776;9.370;2023-03-05T06:50:04;6.10;;;3.80;;
61617;SDS011;47518;51.776;9.370;2023-03-05T06:52:29;6.45;;;3.55;;
61617;SDS011;47518;51.776;9.370;2023-03-05T06:54:55;7.93;;;3.30;;
61617;SDS011;47518;51.776;9.370;2023-03-05T06:57:21;4.03;;;3.10;;
61617;SDS011;47518;51.776;9.370;2023-03-05T06:59:47;5.57;;;3.13;;
61617;SDS011;47518;51.776;9.370;2023-03-05T07:02:13;7.38;;;3.42;;
61617;SDS011;47518;51.776;9.370;2023-03-05T07:04:38;7.72;;;3.55;;
61617;SDS011;47518;51.776;9.370;2023-03-05T07:07:04;6.53;;;3.22;;
61617;SDS011;47518;51.776;9.370;2023-03-05T07:09:30;4.35;;;3.10;;
61617;SDS011;47518;51.776;9.370;2023-03-05T07:12:07;4.75;;;3.10;;
61617;SDS011;47518;51.776;9.370;2023-03-05T07:14:34;6.03;;;3.50;;
61617;SDS011;47518;51.776;9.370;2023-03-05T07:17:01;7.50;;;3.45;;
61617;SDS011;47518;51.776;9.370;2023-03-05T07:19:26;5.50;;;3.30;;
61617;SDS011;47518;51.776;9.370;2023-03-05T07:21:52;7.43;;;3.38;;
61617;SDS011;47518;51.776;9.370;2023-03-05T07:24:17;5.80;;;3.30;;
61617;SDS011;47518;51.776;9.370;2023-03-05T07:26:43;6.78;;;3.20;;
61617;SDS011;47518;51.776;9.370;2023-03-05T07:29:08;4.95;;;2.97;;
61617;SDS011;47518;51.776;9.370;2023-03-05T07:31:33;5.65;;;3.58;;
61617;SDS011;47518;51.776;9.370;2023-03-05T07:34:00;6.03;;;3.25;;
61617;SDS011;47518;51.776;9.370;2023-03-05T07:36:26;4.22;;;2.90;;
61617;SDS011;47518;51.776;9.370;2023-03-05T07:39:05;6.90;;;3.00;;
61617;SDS011;47518;51.776;9.370;2023-03-05T07:41:31;5.47;;;3.28;;
61617;SDS011;47518;51.776;9.370;2023-03-05T07:43:56;6.82;;;3.08;;
61617;SDS011;47518;51.776;9.370;2023-03-05T07:46:23;4.05;;;3.00;;
61617;SDS011;47518;51.776;9.370;2023-03-05T07:48:51;3.67;;;2.85;;
61617;SDS011;47518;51.776;9.370;2023-03-05T07:51:19;6.00;;;3.35;;
61617;SDS011;47518;51.776;9.370;2023-03-05T07:53:50;5.32;;;3.45;;
61617;SDS011;47518;51.776;9.370;2023-03-05T07:56:21;6.15;;;3.42;;
61617;SDS011;47518;51.776;9.370;2023-03-05T08:24:24;5.05;;;3.20;;
61617;SDS011;47518;51.776;9.370;2023-03-05T08:26:53;5.63;;;3.30;;
61617;SDS011;47518;51.776;9.370;2023-03-05T08:29:23;7.75;;;3.65;;
61617;SDS011;47518;51.776;9.370;2023-03-05T08:31:49;5.93;;;3.17;;
61617;SDS011;47518;51.776;9.370;2023-03-05T08:34:17;6.55;;;3.42;;
61617;SDS011;47518;51.776;9.370;2023-03-05T08:36:43;4.53;;;3.25;;
61617;SDS011;47518;51.776;9.370;2023-03-05T08:39:15;3.33;;;3.03;;
61617;SDS011;47518;51.776;9.370;2023-03-05T08:41:41;6.00;;;3.30;;
61617;SDS011;47518;51.776;9.370;2023-03-05T08:44:07;4.40;;;3.00;;
61617;SDS011;47518;51.776;9.370;2023-03-05T08:46:32;3.65;;;3.35;;
61617;SDS011;47518;51.776;9.370;2023-03-05T08:48:58;4.03;;;3.33;;
61617;SDS011;47518;51.776;9.370;2023-03-05T08:51:24;5.15;;;3.85;;
61617;SDS011;47518;51.776;9.370;2023-03-05T08:53:51;4.82;;;3.97;;
61617;SDS011;47518;51.776;9.370;2023-03-05T08:56:18;4.60;;;3.70;;
61617;SDS011;47518;51.776;9.370;2023-03-05T08:58:43;4.82;;;3.53;;
61617;SDS011;47518;51.776;9.370;2023-03-05T09:01:10;6.32;;;3.83;;
61617;SDS011;47518;51.776;9.370;2023-03-05T09:03:36;4.22;;;3.85;;
61617;SDS011;47518;51.776;9.370;2023-03-05T09:06:03;5.15;;;3.70;;
61617;SDS011;47518;51.776;9.370;2023-03-05T09:08:30;6.97;;;4.40;;
61617;SDS011;47518;51.776;9.370;2023-03-05T09:11:00;6.03;;;4.47;;
61617;SDS011;47518;51.776;9.370;2023-03-05T09:13:28;5.30;;;4.18;;
61617;SDS011;47518;51.776;9.370;2023-03-05T09:15:55;4.90;;;4.10;;
61617;SDS011;47518;51.776;9.370;2023-03-05T09:18:22;5.05;;;4.35;;
61617;SDS011;47518;51.776;9.370;2023-03-05T09:20:47;7.50;;;4.53;;
61617;SDS011;47518;51.776;9.370;2023-03-05T09:23:13;5.47;;;4.80;;
61617;SDS011;47518;51.776;9.370;2023-03-05T09:25:39;5.15;;;4.65;;
61617;SDS011;47518;51.776;9.370;2023-03-05T09:28:05;7.05;;;4.80;;
61617;SDS011;47518;51.776;9.370;2023-03-05T09:30:30;7.90;;;5.00;;
61617;SDS011;47518;51.776;9.370;2023-03-05T09:32:56;6.93;;;5.80;;
61617;SDS011;47518;51.776;9.370;2023-03-05T09:35:21;6.65;;;5.07;;
61617;SDS011;47518;51.776;9.370;2023-03-05T09:37:46;7.60;;;4.55;;
61617;SDS011;47518;51.776;9.370;2023-03-05T09:40:13;5.45;;;4.60;;
61617;SDS011;47518;51.776;9.370;2023-03-05T09:55:55;7.32;;;5.40;;
61617;SDS011;47518;51.776;9.370;2023-03-05T09:58:34;7.20;;;5.35;;
61617;SDS011;47518;51.776;9.370;2023-03-05T10:01:05;7.95;;;5.20;;
61617;SDS011;47518;51.776;9.370;2023-03-05T10:03:43;6.60;;;5.20;;
61617;SDS011;47518;51.776;9.370;2023-03-05T10:06:34;6.93;;;4.68;;
61617;SDS011;47518;51.776;9.370;2023-03-05T10:09:06;7.47;;;5.20;;
61617;SDS011;47518;51.776;9.370;2023-03-05T10:11:42;9.10;;;6.22;;
61617;SDS011;47518;51.776;9.370;2023-03-05T10:14:29;9.25;;;5.13;;
61617;SDS011;47518;51.776;9.370;2023-03-05T10:17:08;5.47;;;4.22;;
61617;SDS011;47518;51.776;9.370;2023-03-05T10:19:52;5.93;;;4.10;;
61617;SDS011;47518;51.776;9.370;2023-03-05T10:22:30;5.85;;;4.10;;
61617;SDS011;47518;51.776;9.370;2023-03-05T10:25:06;6.75;;;3.92;;
61617;SDS011;47518;51.776;9.370;2023-03-05T10:40:59;5.97;;;3.33;;
61617;SDS011;47518;51.776;9.370;2023-03-05T10:43:46;5.10;;;3.50;;
61617;SDS011;47518;51.776;9.370;2023-03-05T10:46:21;4.93;;;3.45;;
61617;SDS011;47518;51.776;9.370;2023-03-05T10:48:56;4.38;;;3.30;;
61617;SDS011;47518;51.776;9.370;2023-03-05T10:51:32;6.60;;;3.60;;
61617;SDS011;47518;51.776;9.370;2023-03-05T10:54:08;4.95;;;3.35;;
61617;SDS011;47518;51.776;9.370;2023-03-05T10:56:42;3.47;;;3.13;;
61617;SDS011;47518;51.776;9.370;2023-03-05T10:59:08;3.95;;;3.08;;
61617;SDS011;47518;51.776;9.370;2023-03-05T11:01:34;3.50;;;2.80;;
61617;SDS011;47518;51.776;9.370;2023-03-05T11:06:54;4.43;;;2.85;;
61617;SDS011;47518;51.776;9.370;2023-03-05T11:09:22;4.40;;;2.80;;
61617;SDS011;47518;51.776;9.370;2023-03-05T11:12:03;4.43;;;2.70;;
61617;SDS011;47518;51.776;9.370;2023-03-05T11:14:36;2.65;;;2.45;;
61617;SDS011;47518;51.776;9.370;2023-03-05T11:19:53;4.53;;;2.90;;
61617;SDS011;47518;51.776;9.370;2023-03-05T11:22:21;3.70;;;2.75;;
61617;SDS011;47518;51.776;9.370;2023-03-05T11:25:11;2.70;;;2.50;;
61617;SDS011;47518;51.776;9.370;2023-03-05T11:28:02;2.80;;;2.60;;
61617;SDS011;47518;51.776;9.370;2023-03-05T11:30:30;3.53;;;2.55;;
61617;SDS011;47518;51.776;9.370;2023-03-05T11:33:15;2.78;;;2.58;;
61617;SDS011;47518;51.776;9.370;2023-03-05T11:35:45;2.63;;;2.50;;
61617;SDS011;47518;51.776;9.370;2023-03-05T11:38:18;3.63;;;2.55;;
61617;SDS011;47518;51.776;9.370;2023-03-05T11:40:53;2.50;;;2.30;;
61617;SDS011;47518;51.776;9.370;2023-03-05T11:43:22;4.50;;;2.45;;
61617;SDS011;47518;51.776;9.370;2023-03-05T11:45:51;3.05;;;2.55;;
61617;SDS011;47518;51.776;9.370;2023-03-05T11:48:24;2.50;;;2.30;;
61617;SDS011;47518;51.776;9.370;2023-03-05T11:50:55;3.45;;;2.80;;
61617;SDS011;47518;51.776;9.370;2023-03-05T11:53:26;2.97;;;2.58;;
61617;SDS011;47518;51.776;9.370;2023-03-05T11:55:57;4.65;;;2.97;;
61617;SDS011;47518;51.776;9.370;2023-03-05T12:01:19;3.67;;;2.88;;
61617;SDS011;47518;51.776;9.370;2023-03-05T12:03:46;3.20;;;2.90;;
61617;SDS011;47518;51.776;9.370;2023-03-05T12:06:16;2.92;;;2.70;;
61617;SDS011;47518;51.776;9.370;2023-03-05T12:09:07;5.57;;;2.92;;
61617;SDS011;47518;51.776;9.370;2023-03-05T12:11:44;3.38;;;2.97;;
61617;SDS011;47518;51.776;9.370;2023-03-05T12:29:53;4.05;;;2.90;;
61617;SDS011;47518;51.776;9.370;2023-03-05T13:14:29;8.20;;;3.50;;
61617;SDS011;47518;51.776;9.370;2023-03-05T13:17:32;4.30;;;3.90;;
61617;SDS011;47518;51.776;9.370;2023-03-05T13:20:03;4.70;;;4.20;;
61617;SDS011;47518;51.776;9.370;2023-03-05T13:33:32;5.03;;;3.50;;
61617;SDS011;47518;51.776;9.370;2023-03-05T13:36:06;3.80;;;3.50;;
61617;SDS011;47518;51.776;9.370;2023-03-05T13:38:49;5.32;;;3.90;;
61617;SDS011;47518;51.776;9.370;2023-03-05T13:41:18;4.65;;;3.47;;
61617;SDS011;47518;51.776;9.370;2023-03-05T13:59:33;3.30;;;3.00;;
61617;SDS011;47518;51.776;9.370;2023-03-05T14:02:03;3.10;;;2.90;;
61617;SDS011;47518;51.776;9.370;2023-03-05T14:04:40;3.90;;;3.08;;
61617;SDS011;47518;51.776;9.370;2023-03-05T14:09:56;3.50;;;3.20;;
61617;SDS011;47518;51.776;9.370;2023-03-05T14:12:37;3.28;;;2.90;;
61617;SDS011;47518;51.776;9.370;2023-03-05T14:15:23;3.65;;;2.65;;
61617;SDS011;47518;51.776;9.370;2023-03-05T14:18:06;2.90;;;2.70;;
61617;SDS011;47518;51.776;9.370;2023-03-05T14:20:33;4.30;;;2.63;;
61617;SDS011;47518;51.776;9.370;2023-03-05T14:22:59;2.83;;;2.47;;
61617;SDS011;47518;51.776;9.370;2023-03-05T14:30:49;3.13;;;2.83;;
61617;SDS011;47518;51.776;9.370;2023-03-05T14:33:26;4.40;;;2.70;;
61617;SDS011;47518;51.776;9.370;2023-03-05T14:35:54;3.03;;;2.60;;
61617;SDS011;47518;51.776;9.370;2023-03-05T14:38:24;3.05;;;2.85;;
61617;SDS011;47518;51.776;9.370;2023-03-05T14:40:53;2.85;;;2.65;;
61617;SDS011;47518;51.776;9.370;2023-03-05T14:43:18;3.20;;;2.60;;
61617;SDS011;47518;51.776;9.370;2023-03-05T14:45:44;2.60;;;2.40;;
61617;SDS011;47518;51.776;9.370;2023-03-05T14:48:12;3.35;;;2.55;;
61617;SDS011;47518;51.776;9.370;2023-03-05T15:03:46;2.92;;;2.65;;
61617;SDS011;47518;51.776;9.370;2023-03-05T15:09:05;4.13;;;2.97;;
61617;SDS011;47518;51.776;9.370;2023-03-05T15:11:32;3.67;;;2.90;;
61617;SDS011;47518;51.776;9.370;2023-03-05T15:13:57;3.00;;;2.72;;
61617;SDS011;47518;51.776;9.370;2023-03-05T15:16:23;4.22;;;2.80;;
61617;SDS011;47518;51.776;9.370;2023-03-05T15:18:48;3.08;;;2.88;;
61617;SDS011;47518;51.776;9.370;2023-03-05T15:21:14;3.60;;;3.08;;
61617;SDS011;47518;51.776;9.370;2023-03-05T15:23:39;5.50;;;3.13;;
61617;SDS011;47518;51.776;9.370;2023-03-05T15:26:06;3.25;;;2.90;;
61617;SDS011;47518;51.776;9.370;2023-03-05T15:28:33;3.22;;;3.00;;
61617;SDS011;47518;51.776;9.370;2023-03-05T15:31:00;4.22;;;2.97;;
61617;SDS011;47518;51.776;9.370;2023-03-05T15:33:27;2.97;;;2.78;;
61617;SDS011;47518;51.776;9.370;2023-03-05T15:35:53;4.82;;;2.80;;
61617;SDS011;47518;51.776;9.370;2023-03-05T15:38:19;2.90;;;2.70;;
61617;SDS011;47518;51.776;9.370;2023-03-05T15:40:44;3.08;;;2.85;;
61617;SDS011;47518;51.776;9.370;2023-03-05T15:43:14;3.67;;;3.00;;
61617;SDS011;47518;51.776;9.370;2023-03-05T15:45:40;3.00;;;2.80;;
61617;SDS011;47518;51.776;9.370;2023-03-05T15:48:05;6.65;;;2.92;;
61617;SDS011;47518;51.776;9.370;2023-03-05T15:50:31;2.90;;;2.70;;
61617;SDS011;47518;51.776;9.370;2023-03-05T15:52:59;4.85;;;2.90;;
61617;SDS011;47518;51.776;9.370;2023-03-05T15:55:25;3.80;;;3.00;;
61617;SDS011;47518;51.776;9.370;2023-03-05T15:57:53;2.95;;;2.75;;
61617;SDS011;47518;51.776;9.370;2023-03-05T16:00:20;3.50;;;2.92;;
61617;SDS011;47518;51.776;9.370;2023-03-05T16:02:50;5.93;;;3.33;;
61617;SDS011;47518;51.776;9.370;2023-03-05T16:05:22;4.43;;;3.10;;
61617;SDS011;47518;51.776;9.370;2023-03-05T16:07:48;5.13;;;3.10;;
61617;SDS011;47518;51.776;9.370;2023-03-05T16:10:16;4.10;;;3.25;;
61617;SDS011;47518;51.776;9.370;2023-03-05T16:12:46;5.13;;;3.50;;
61617;SDS011;47518;51.776;9.370;2023-03-05T16:15:19;3.42;;;2.97;;
61617;SDS011;47518;51.776;9.370;2023-03-05T16:17:47;3.42;;;3.13;;
61617;SDS011;47518;51.776;9.370;2023-03-05T16:20:18;3.58;;;3.28;;
61617;SDS011;47518;51.776;9.370;2023-03-05T16:22:44;3.72;;;3.13;;
61617;SDS011;47518;51.776;9.370;2023-03-05T16:25:14;4.93;;;3.78;;
61617;SDS011;47518;51.776;9.370;2023-03-05T16:27:43;3.95;;;3.30;;
61617;SDS011;47518;51.776;9.370;2023-03-05T16:30:09;4.20;;;3.40;;
61617;SDS011;47518;51.776;9.370;2023-03-05T16:32:36;5.35;;;3.35;;
61617;SDS011;47518;51.776;9.370;2023-03-05T16:35:02;3.92;;;3.50;;
61617;SDS011;47518;51.776;9.370;2023-03-05T16:37:31;8.13;;;3.63;;
61617;SDS011;47518;51.776;9.370;2023-03-05T16:39:57;4.30;;;3.40;;
61617;SDS011;47518;51.776;9.370;2023-03-05T16:42:25;5.80;;;4.00;;
61617;SDS011;47518;51.776;9.370;2023-03-05T16:44:51;4.28;;;3.85;;
61617;SDS011;47518;51.776;9.370;2023-03-05T16:47:19;9.38;;;5.40;;
61617;SDS011;47518;51.776;9.370;2023-03-05T16:49:45;5.80;;;4.07;;
61617;SDS011;47518;51.776;9.370;2023-03-05T16:52:10;5.55;;;4.38;;
61617;SDS011;47518;51.776;9.370;2023-03-05T16:54:36;7.55;;;4.78;;
61617;SDS011;47518;51.776;9.370;2023-03-05T16:57:06;6.10;;;3.97;;
61617;SDS011;47518;51.776;9.370;2023-03-05T16:59:33;5.50;;;4.32;;
61617;SDS011;47518;51.776;9.370;2023-03-05T17:01:59;4.93;;;3.72;;
61617;SDS011;47518;51.776;9.370;2023-03-05T17:04:24;10.00;;;6.18;;
61617;SDS011;47518;51.776;9.370;2023-03-05T17:06:50;7.30;;;4.28;;
61617;SDS011;47518;51.776;9.370;2023-03-05T17:09:15;6.68;;;4.75;;
61617;SDS011;47518;51.776;9.370;2023-03-05T17:11:43;6.13;;;4.47;;
61617;SDS011;47518;51.776;9.370;2023-03-05T17:14:09;4.97;;;4.13;;
61617;SDS011;47518;51.776;9.370;2023-03-05T17:16:34;4.65;;;3.40;;
61617;SDS011;47518;51.776;9.370;2023-03-05T17:19:03;9.38;;;3.72;;
61617;SDS011;47518;51.776;9.370;2023-03-05T17:21:28;6.80;;;4.00;;
61617;SDS011;47518;51.776;9.370;2023-03-05T17:23:54;4.07;;;3.75;;
61617;SDS011;47518;51.776;9.370;2023-03-05T17:26:20;5.22;;;3.85;;
61617;SDS011;47518;51.776;9.370;2023-03-05T17:28:47;4.78;;;3.63;;
61617;SDS011;47518;51.776;9.370;2023-03-05T17:31:13;4.47;;;3.70;;
61617;SDS011;47518;51.776;9.370;2023-03-05T17:33:39;6.50;;;3.70;;
61617;SDS011;47518;51.776;9.370;2023-03-05T17:36:11;5.63;;;3.70;;
61617;SDS011;47518;51.776;9.370;2023-03-05T17:38:38;5.45;;;4.03;;
61617;SDS011;47518;51.776;9.370;2023-03-05T17:41:03;4.40;;;3.60;;
61617;SDS011;47518;51.776;9.370;2023-03-05T17:43:29;4.22;;;3.20;;
61617;SDS011;47518;51.776;9.370;2023-03-05T17:45:55;5.22;;;3.50;;
61617;SDS011;47518;51.776;9.370;2023-03-05T17:48:25;8.35;;;5.10;;
61617;SDS011;47518;51.776;9.370;2023-03-05T17:50:51;4.95;;;3.78;;
61617;SDS011;47518;51.776;9.370;2023-03-05T17:53:17;6.97;;;4.50;;
61617;SDS011;47518;51.776;9.370;2023-03-05T17:55:43;8.57;;;5.20;;
61617;SDS011;47518;51.776;9.370;2023-03-05T17:58:08;7.68;;;5.47;;
61617;SDS011;47518;51.776;9.370;2023-03-05T18:00:39;5.43;;;4.07;;
61617;SDS011;47518;51.776;9.370;2023-03-05T18:03:05;5.07;;;4.28;;
61617;SDS011;47518;51.776;9.370;2023-03-05T18:05:33;8.57;;;5.50;;
61617;SDS011;47518;51.776;9.370;2023-03-05T18:07:58;5.07;;;3.97;;
61617;SDS011;47518;51.776;9.370;2023-03-05T18:10:25;6.95;;;4.60;;
61617;SDS011;47518;51.776;9.370;2023-03-05T18:12:52;6.60;;;4.65;;
61617;SDS011;47518;51.776;9.370;2023-03-05T18:15:19;8.05;;;4.93;;
61617;SDS011;47518;51.776;9.370;2023-03-05T18:17:46;5.35;;;4.75;;
61617;SDS011;47518;51.776;9.370;2023-03-05T18:20:19;9.15;;;5.13;;
61617;SDS011;47518;51.776;9.370;2023-03-05T18:22:52;7.25;;;4.82;;
61617;SDS011;47518;51.776;9.370;2023-03-05T18:25:17;8.88;;;5.38;;
61617;SDS011;47518;51.776;9.370;2023-03-05T18:27:43;8.10;;;5.40;;